sensor_id;sensor_type;location;lat;lon;timestamp;temperature;humidity
70830;SHT30;58451;51.550;7.208;2023-03-01T00:00:03;-2.36;74.00
70830;SHT30;58451;51.550;7.208;2023-03-01T00:01:41;-2.36;74.07
70830;SHT30;58451;51.550;7.208;2023-03-01T00:03:13;-2.37;74.05
70830;SHT30;58451;51.550;7.208;2023-03-01T00:04:45;-2.38;74.13
70830;SHT30;58451;51.550;7.208;2023-03-01T00:06:18;-2.38;74.20
70830;SHT30;58451;51.550;7.208;2023-03-01T00:07:54;-2.39;74.17
70830;SHT30;58451;51.550;7.208;2023-03-01T00:09:26;-2.41;74.25
70830;SHT30;58451;51.550;7.208;2023-03-01T00:12:54;-2.45;74.32
70830;SHT30;58451;51.550;7.208;2023-03-01T00:14:27;-2.45;74.42
70830;SHT30;58451;51.550;7.208;2023-03-01T00:16:05;-2.45;74.48
70830;SHT30;58451;51.550;7.208;2023-03-01T00:17:41;-2.46;74.52
70830;SHT30;58451;51.550;7.208;2023-03-01T00:19:15;-2.49;74.55
70830;SHT30;58451;51.550;7.208;2023-03-01T00:20:50;-2.49;74.63
70830;SHT30;58451;51.550;7.208;2023-03-01T00:22:27;-2.51;74.50
70830;SHT30;58451;51.550;7.208;2023-03-01T00:24:00;-2.53;74.60
70830;SHT30;58451;51.550;7.208;2023-03-01T00:25:32;-2.54;74.67
70830;SHT30;58451;51.550;7.208;2023-03-01T00:27:04;-2.57;74.70
70830;SHT30;58451;51.550;7.208;2023-03-01T00:28:36;-2.57;74.73
70830;SHT30;58451;51.550;7.208;2023-03-01T00:30:08;-2.59;74.77
70830;SHT30;58451;51.550;7.208;2023-03-01T00:31:40;-2.61;74.80
70830;SHT30;58451;51.550;7.208;2023-03-01T00:33:12;-2.63;74.80
70830;SHT30;58451;51.550;7.208;2023-03-01T00:34:44;-2.64;74.80
70830;SHT30;58451;51.550;7.208;2023-03-01T00:36:27;-2.65;74.93
70830;SHT30;58451;51.550;7.208;2023-03-01T00:38:05;-2.67;74.95
70830;SHT30;58451;51.550;7.208;2023-03-01T00:39:37;-2.69;75.07
70830;SHT30;58451;51.550;7.208;2023-03-01T00:41:10;-2.69;75.18
70830;SHT30;58451;51.550;7.208;2023-03-01T00:42:45;-2.70;75.13
70830;SHT30;58451;51.550;7.208;2023-03-01T00:44:17;-2.71;75.20
70830;SHT30;58451;51.550;7.208;2023-03-01T00:45:49;-2.73;75.17
70830;SHT30;58451;51.550;7.208;2023-03-01T00:47:21;-2.75;75.25
70830;SHT30;58451;51.550;7.208;2023-03-01T00:48:53;-2.76;75.37
70830;SHT30;58451;51.550;7.208;2023-03-01T00:50:25;-2.79;75.42
70830;SHT30;58451;51.550;7.208;2023-03-01T00:51:57;-2.78;75.47
70830;SHT30;58451;51.550;7.208;2023-03-01T00:53:28;-2.80;75.58
70830;SHT30;58451;51.550;7.208;2023-03-01T00:55:00;-2.81;75.57
70830;SHT30;58451;51.550;7.208;2023-03-01T00:56:32;-2.82;75.57
70830;SHT30;58451;51.550;7.208;2023-03-01T00:58:04;-2.84;75.70
70830;SHT30;58451;51.550;7.208;2023-03-01T00:59:36;-2.85;75.68
70830;SHT30;58451;51.550;7.208;2023-03-01T01:01:09;-2.87;75.80
70830;SHT30;58451;51.550;7.208;2023-03-01T01:02:53;-2.89;75.93
70830;SHT30;58451;51.550;7.208;2023-03-01T01:04:26;-2.91;75.87
70830;SHT30;58451;51.550;7.208;2023-03-01T01:05:57;-2.94;75.93
70830;SHT30;58451;51.550;7.208;2023-03-01T01:07:29;-2.95;75.98
70830;SHT30;58451;51.550;7.208;2023-03-01T01:09:03;-2.95;75.97
70830;SHT30;58451;51.550;7.208;2023-03-01T01:10:38;-2.97;76.02
70830;SHT30;58451;51.550;7.208;2023-03-01T01:12:10;-2.97;76.00
70830;SHT30;58451;51.550;7.208;2023-03-01T01:13:43;-2.99;76.05
70830;SHT30;58451;51.550;7.208;2023-03-01T01:15:17;-3.01;75.98
70830;SHT30;58451;51.550;7.208;2023-03-01T01:16:49;-3.03;76.03
70830;SHT30;58451;51.550;7.208;2023-03-01T01:18:22;-3.05;76.05
70830;SHT30;58451;51.550;7.208;2023-03-01T01:19:54;-3.06;76.10
70830;SHT30;58451;51.550;7.208;2023-03-01T01:21:26;-3.07;76.25
70830;SHT30;58451;51.550;7.208;2023-03-01T01:22:58;-3.08;76.28
70830;SHT30;58451;51.550;7.208;2023-03-01T01:24:30;-3.09;76.25
70830;SHT30;58451;51.550;7.208;2023-03-01T01:26:04;-3.09;76.30
70830;SHT30;58451;51.550;7.208;2023-03-01T01:27:59;-3.10;76.30
70830;SHT30;58451;51.550;7.208;2023-03-01T01:29:31;-3.10;76.30
70830;SHT30;58451;51.550;7.208;2023-03-01T01:31:03;-3.12;76.40
70830;SHT30;58451;51.550;7.208;2023-03-01T01:32:39;-3.14;76.45
70830;SHT30;58451;51.550;7.208;2023-03-01T01:34:15;-3.16;76.52
70830;SHT30;58451;51.550;7.208;2023-03-01T01:35:50;-3.18;76.62
70830;SHT30;58451;51.550;7.208;2023-03-01T01:37:22;-3.18;76.62
70830;SHT30;58451;51.550;7.208;2023-03-01T01:38:54;-3.19;76.62
70830;SHT30;58451;51.550;7.208;2023-03-01T01:40:26;-3.21;76.63
70830;SHT30;58451;51.550;7.208;2023-03-01T01:41:58;-3.22;76.63
70830;SHT30;58451;51.550;7.208;2023-03-01T01:43:31;-3.23;76.65
70830;SHT30;58451;51.550;7.208;2023-03-01T01:47:12;-3.29;76.60
70830;SHT30;58451;51.550;7.208;2023-03-01T01:49:00;-3.30;76.72
70830;SHT30;58451;51.550;7.208;2023-03-01T01:50:38;-3.30;76.70
70830;SHT30;58451;51.550;7.208;2023-03-01T01:52:25;-3.30;76.75
70830;SHT30;58451;51.550;7.208;2023-03-01T01:54:09;-3.30;76.80
70830;SHT30;58451;51.550;7.208;2023-03-01T01:55:49;-3.29;76.83
70830;SHT30;58451;51.550;7.208;2023-03-01T01:57:37;-3.29;76.90
70830;SHT30;58451;51.550;7.208;2023-03-01T01:59:14;-3.28;76.92
70830;SHT30;58451;51.550;7.208;2023-03-01T02:00:46;-3.28;77.00
70830;SHT30;58451;51.550;7.208;2023-03-01T02:02:21;-3.27;77.02
70830;SHT30;58451;51.550;7.208;2023-03-01T02:03:53;-3.26;77.00
70830;SHT30;58451;51.550;7.208;2023-03-01T02:07:17;-3.26;77.10
70830;SHT30;58451;51.550;7.208;2023-03-01T02:08:57;-3.23;77.15
70830;SHT30;58451;51.550;7.208;2023-03-01T02:10:36;-3.20;77.17
70830;SHT30;58451;51.550;7.208;2023-03-01T02:12:10;-3.20;77.13
70830;SHT30;58451;51.550;7.208;2023-03-01T02:13:43;-3.20;77.12
70830;SHT30;58451;51.550;7.208;2023-03-01T02:15:19;-3.20;77.10
70830;SHT30;58451;51.550;7.208;2023-03-01T02:16:51;-3.22;77.15
70830;SHT30;58451;51.550;7.208;2023-03-01T02:18:23;-3.22;77.17
70830;SHT30;58451;51.550;7.208;2023-03-01T02:20:03;-3.23;77.13
70830;SHT30;58451;51.550;7.208;2023-03-01T02:21:54;-3.24;77.27
70830;SHT30;58451;51.550;7.208;2023-03-01T02:23:53;-3.24;77.22
70830;SHT30;58451;51.550;7.208;2023-03-01T02:25:34;-3.24;77.25
70830;SHT30;58451;51.550;7.208;2023-03-01T02:27:35;-3.26;77.22
70830;SHT30;58451;51.550;7.208;2023-03-01T02:29:47;-3.27;77.22
70830;SHT30;58451;51.550;7.208;2023-03-01T02:31:19;-3.29;77.20
70830;SHT30;58451;51.550;7.208;2023-03-01T02:33:11;-3.33;77.20
70830;SHT30;58451;51.550;7.208;2023-03-01T02:34:43;-3.33;77.28
70830;SHT30;58451;51.550;7.208;2023-03-01T02:36:17;-3.36;77.27
70830;SHT30;58451;51.550;7.208;2023-03-01T02:37:53;-3.37;77.28
70830;SHT30;58451;51.550;7.208;2023-03-01T02:39:36;-3.39;77.38
70830;SHT30;58451;51.550;7.208;2023-03-01T02:41:16;-3.39;77.48
70830;SHT30;58451;51.550;7.208;2023-03-01T02:42:55;-3.39;77.53
70830;SHT30;58451;51.550;7.208;2023-03-01T02:44:30;-3.38;77.62
70830;SHT30;58451;51.550;7.208;2023-03-01T02:46:05;-3.38;77.60
70830;SHT30;58451;51.550;7.208;2023-03-01T02:47:54;-3.38;77.62
70830;SHT30;58451;51.550;7.208;2023-03-01T02:49:28;-3.39;77.58
70830;SHT30;58451;51.550;7.208;2023-03-01T02:51:10;-3.41;77.60
70830;SHT30;58451;51.550;7.208;2023-03-01T02:54:06;-3.43;77.60
70830;SHT30;58451;51.550;7.208;2023-03-01T02:55:10;-3.46;77.60
70830;SHT30;58451;51.550;7.208;2023-03-01T02:56:48;-3.46;77.70
70830;SHT30;58451;51.550;7.208;2023-03-01T02:58:22;-3.46;77.70
70830;SHT30;58451;51.550;7.208;2023-03-01T02:59:54;-3.48;77.78
70830;SHT30;58451;51.550;7.208;2023-03-01T03:01:29;-3.47;77.83
70830;SHT30;58451;51.550;7.208;2023-03-01T03:03:13;-3.47;77.90
70830;SHT30;58451;51.550;7.208;2023-03-01T03:04:47;-3.47;77.93
70830;SHT30;58451;51.550;7.208;2023-03-01T03:06:19;-3.47;77.97
70830;SHT30;58451;51.550;7.208;2023-03-01T03:07:51;-3.47;78.00
70830;SHT30;58451;51.550;7.208;2023-03-01T03:09:25;-3.48;77.98
70830;SHT30;58451;51.550;7.208;2023-03-01T03:10:57;-3.47;78.00
70830;SHT30;58451;51.550;7.208;2023-03-01T03:12:29;-3.50;78.10
70830;SHT30;58451;51.550;7.208;2023-03-01T03:14:01;-3.49;78.20
70830;SHT30;58451;51.550;7.208;2023-03-01T03:15:34;-3.50;78.23
70830;SHT30;58451;51.550;7.208;2023-03-01T03:17:07;-3.50;78.28
70830;SHT30;58451;51.550;7.208;2023-03-01T03:18:39;-3.51;78.33
70830;SHT30;58451;51.550;7.208;2023-03-01T03:20:11;-3.50;78.38
70830;SHT30;58451;51.550;7.208;2023-03-01T03:21:50;-3.50;78.43
70830;SHT30;58451;51.550;7.208;2023-03-01T03:23:22;-3.50;78.40
70830;SHT30;58451;51.550;7.208;2023-03-01T03:24:54;-3.51;78.40
70830;SHT30;58451;51.550;7.208;2023-03-01T03:26:26;-3.51;78.40
70830;SHT30;58451;51.550;7.208;2023-03-01T03:27:58;-3.52;78.45
70830;SHT30;58451;51.550;7.208;2023-03-01T03:29:30;-3.51;78.45
70830;SHT30;58451;51.550;7.208;2023-03-01T03:31:03;-3.51;78.52
70830;SHT30;58451;51.550;7.208;2023-03-01T03:32:39;-3.52;78.47
70830;SHT30;58451;51.550;7.208;2023-03-01T03:34:13;-3.54;78.50
70830;SHT30;58451;51.550;7.208;2023-03-01T03:35:49;-3.55;78.53
70830;SHT30;58451;51.550;7.208;2023-03-01T03:37:22;-3.54;78.52
70830;SHT30;58451;51.550;7.208;2023-03-01T03:39:12;-3.56;78.53
70830;SHT30;58451;51.550;7.208;2023-03-01T03:40:45;-3.57;78.55
70830;SHT30;58451;51.550;7.208;2023-03-01T03:42:21;-3.59;78.55
70830;SHT30;58451;51.550;7.208;2023-03-01T03:43:53;-3.60;78.58
70830;SHT30;58451;51.550;7.208;2023-03-01T03:45:25;-3.60;78.63
70830;SHT30;58451;51.550;7.208;2023-03-01T03:46:57;-3.61;78.62
70830;SHT30;58451;51.550;7.208;2023-03-01T03:48:29;-3.62;78.65
70830;SHT30;58451;51.550;7.208;2023-03-01T03:50:00;-3.64;78.68
70830;SHT30;58451;51.550;7.208;2023-03-01T03:51:32;-3.65;78.70
70830;SHT30;58451;51.550;7.208;2023-03-01T03:53:05;-3.66;78.67
70830;SHT30;58451;51.550;7.208;2023-03-01T03:54:41;-3.68;78.70
70830;SHT30;58451;51.550;7.208;2023-03-01T03:56:13;-3.69;78.70
70830;SHT30;58451;51.550;7.208;2023-03-01T03:57:46;-3.69;78.77
70830;SHT30;58451;51.550;7.208;2023-03-01T03:59:23;-3.71;78.77
70830;SHT30;58451;51.550;7.208;2023-03-01T04:00:55;-3.73;78.80
70830;SHT30;58451;51.550;7.208;2023-03-01T04:02:28;-3.74;78.83
70830;SHT30;58451;51.550;7.208;2023-03-01T04:04:00;-3.77;78.87
70830;SHT30;58451;51.550;7.208;2023-03-01T04:05:36;-3.77;78.90
70830;SHT30;58451;51.550;7.208;2023-03-01T04:07:09;-3.77;78.93
70830;SHT30;58451;51.550;7.208;2023-03-01T04:08:42;-3.78;78.93
70830;SHT30;58451;51.550;7.208;2023-03-01T04:10:14;-3.79;79.00
70830;SHT30;58451;51.550;7.208;2023-03-01T04:11:49;-3.81;79.03
70830;SHT30;58451;51.550;7.208;2023-03-01T04:13:21;-3.83;78.98
70830;SHT30;58451;51.550;7.208;2023-03-01T04:14:55;-3.85;78.95
70830;SHT30;58451;51.550;7.208;2023-03-01T04:16:27;-3.86;78.95
70830;SHT30;58451;51.550;7.208;2023-03-01T04:18:00;-3.89;78.98
70830;SHT30;58451;51.550;7.208;2023-03-01T04:19:33;-3.90;79.02
70830;SHT30;58451;51.550;7.208;2023-03-01T04:21:07;-3.91;79.08
70830;SHT30;58451;51.550;7.208;2023-03-01T04:22:39;-3.92;79.08
70830;SHT30;58451;51.550;7.208;2023-03-01T04:24:12;-3.92;79.10
70830;SHT30;58451;51.550;7.208;2023-03-01T04:25:47;-3.93;79.10
70830;SHT30;58451;51.550;7.208;2023-03-01T04:27:25;-3.95;79.08
70830;SHT30;58451;51.550;7.208;2023-03-01T04:28:57;-3.95;79.10
70830;SHT30;58451;51.550;7.208;2023-03-01T04:30:28;-3.97;79.10
70830;SHT30;58451;51.550;7.208;2023-03-01T04:32:00;-3.99;79.10
70830;SHT30;58451;51.550;7.208;2023-03-01T04:33:32;-3.99;79.10
70830;SHT30;58451;51.550;7.208;2023-03-01T04:35:04;-4.01;79.20
70830;SHT30;58451;51.550;7.208;2023-03-01T04:36:36;-4.00;79.23
70830;SHT30;58451;51.550;7.208;2023-03-01T04:38:08;-3.99;79.30
70830;SHT30;58451;51.550;7.208;2023-03-01T04:39:41;-3.98;79.28
70830;SHT30;58451;51.550;7.208;2023-03-01T04:41:18;-3.98;79.30
70830;SHT30;58451;51.550;7.208;2023-03-01T04:42:53;-3.99;79.25
70830;SHT30;58451;51.550;7.208;2023-03-01T04:44:25;-4.00;79.20
70830;SHT30;58451;51.550;7.208;2023-03-01T04:46:01;-3.99;79.28
70830;SHT30;58451;51.550;7.208;2023-03-01T04:47:35;-4.01;79.30
70830;SHT30;58451;51.550;7.208;2023-03-01T04:49:09;-4.01;79.30
70830;SHT30;58451;51.550;7.208;2023-03-01T04:50:41;-4.01;79.40
70830;SHT30;58451;51.550;7.208;2023-03-01T04:52:13;-4.00;79.40
70830;SHT30;58451;51.550;7.208;2023-03-01T04:53:44;-3.98;79.43
70830;SHT30;58451;51.550;7.208;2023-03-01T04:55:16;-3.98;79.43
70830;SHT30;58451;51.550;7.208;2023-03-01T04:56:49;-3.98;79.47
70830;SHT30;58451;51.550;7.208;2023-03-01T04:58:22;-3.98;79.45
70830;SHT30;58451;51.550;7.208;2023-03-01T04:59:55;-4.00;79.45
70830;SHT30;58451;51.550;7.208;2023-03-01T05:01:27;-4.00;79.47
70830;SHT30;58451;51.550;7.208;2023-03-01T05:02:59;-4.01;79.48
70830;SHT30;58451;51.550;7.208;2023-03-01T05:04:32;-4.00;79.50
70830;SHT30;58451;51.550;7.208;2023-03-01T05:06:04;-4.00;79.53
70830;SHT30;58451;51.550;7.208;2023-03-01T05:07:36;-4.01;79.53
70830;SHT30;58451;51.550;7.208;2023-03-01T05:09:07;-4.01;79.55
70830;SHT30;58451;51.550;7.208;2023-03-01T05:10:39;-4.02;79.50
70830;SHT30;58451;51.550;7.208;2023-03-01T05:12:12;-4.02;79.57
70830;SHT30;58451;51.550;7.208;2023-03-01T05:13:46;-4.02;79.60
70830;SHT30;58451;51.550;7.208;2023-03-01T05:15:18;-4.01;79.60
70830;SHT30;58451;51.550;7.208;2023-03-01T05:16:52;-4.01;79.63
70830;SHT30;58451;51.550;7.208;2023-03-01T05:18:25;-4.02;79.63
70830;SHT30;58451;51.550;7.208;2023-03-01T05:19:59;-4.02;79.65
70830;SHT30;58451;51.550;7.208;2023-03-01T05:21:32;-4.02;79.60
70830;SHT30;58451;51.550;7.208;2023-03-01T05:23:05;-4.04;79.60
70830;SHT30;58451;51.550;7.208;2023-03-01T05:24:37;-4.05;79.68
70830;SHT30;58451;51.550;7.208;2023-03-01T05:26:09;-4.05;79.70
70830;SHT30;58451;51.550;7.208;2023-03-01T05:27:59;-4.07;79.70
70830;SHT30;58451;51.550;7.208;2023-03-01T05:29:35;-4.07;79.70
70830;SHT30;58451;51.550;7.208;2023-03-01T05:31:07;-4.07;79.70
70830;SHT30;58451;51.550;7.208;2023-03-01T05:32:45;-4.09;79.70
70830;SHT30;58451;51.550;7.208;2023-03-01T05:34:33;-4.09;79.77
70830;SHT30;58451;51.550;7.208;2023-03-01T05:36:07;-4.10;79.77
70830;SHT30;58451;51.550;7.208;2023-03-01T05:37:44;-4.09;79.80
70830;SHT30;58451;51.550;7.208;2023-03-01T05:39:19;-4.09;79.90
70830;SHT30;58451;51.550;7.208;2023-03-01T05:40:57;-4.08;79.88
70830;SHT30;58451;51.550;7.208;2023-03-01T05:42:29;-4.09;79.92
70830;SHT30;58451;51.550;7.208;2023-03-01T05:44:01;-4.09;79.87
70830;SHT30;58451;51.550;7.208;2023-03-01T05:45:37;-4.10;79.88
70830;SHT30;58451;51.550;7.208;2023-03-01T05:47:10;-4.10;79.90
70830;SHT30;58451;51.550;7.208;2023-03-01T05:48:42;-4.11;79.90
70830;SHT30;58451;51.550;7.208;2023-03-01T05:50:15;-4.12;79.97
70830;SHT30;58451;51.550;7.208;2023-03-01T05:51:56;-4.11;80.00
70830;SHT30;58451;51.550;7.208;2023-03-01T05:53:28;-4.11;80.00
70830;SHT30;58451;51.550;7.208;2023-03-01T05:55:00;-4.12;80.03
70830;SHT30;58451;51.550;7.208;2023-03-01T05:56:33;-4.11;80.10
70830;SHT30;58451;51.550;7.208;2023-03-01T05:58:07;-4.12;80.10
70830;SHT30;58451;51.550;7.208;2023-03-01T05:59:42;-4.13;80.10
70830;SHT30;58451;51.550;7.208;2023-03-01T06:01:14;-4.12;80.13
70830;SHT30;58451;51.550;7.208;2023-03-01T06:02:45;-4.12;80.20
70830;SHT30;58451;51.550;7.208;2023-03-01T06:04:17;-4.12;80.30
70830;SHT30;58451;51.550;7.208;2023-03-01T06:05:49;-4.10;80.38
70830;SHT30;58451;51.550;7.208;2023-03-01T06:07:27;-4.07;80.42
70830;SHT30;58451;51.550;7.208;2023-03-01T06:08:59;-4.07;80.38
70830;SHT30;58451;51.550;7.208;2023-03-01T06:10:31;-4.06;80.40
70830;SHT30;58451;51.550;7.208;2023-03-01T06:12:03;-4.07;80.47
70830;SHT30;58451;51.550;7.208;2023-03-01T06:13:36;-4.05;80.42
70830;SHT30;58451;51.550;7.208;2023-03-01T06:15:08;-4.04;80.35
70830;SHT30;58451;51.550;7.208;2023-03-01T06:16:43;-4.05;80.40
70830;SHT30;58451;51.550;7.208;2023-03-01T06:18:15;-4.05;80.40
70830;SHT30;58451;51.550;7.208;2023-03-01T06:19:47;-4.04;80.48
70830;SHT30;58451;51.550;7.208;2023-03-01T06:21:19;-4.03;80.47
70830;SHT30;58451;51.550;7.208;2023-03-01T06:22:51;-4.03;80.43
70830;SHT30;58451;51.550;7.208;2023-03-01T06:24:23;-4.01;80.45
70830;SHT30;58451;51.550;7.208;2023-03-01T06:25:55;-4.00;80.50
70830;SHT30;58451;51.550;7.208;2023-03-01T06:27:27;-3.99;80.47
70830;SHT30;58451;51.550;7.208;2023-03-01T06:28:59;-3.99;80.45
70830;SHT30;58451;51.550;7.208;2023-03-01T06:30:31;-3.98;80.47
70830;SHT30;58451;51.550;7.208;2023-03-01T06:32:03;-3.97;80.47
70830;SHT30;58451;51.550;7.208;2023-03-01T06:33:35;-3.94;80.45
70830;SHT30;58451;51.550;7.208;2023-03-01T06:35:07;-3.94;80.45
70830;SHT30;58451;51.550;7.208;2023-03-01T06:36:42;-3.91;80.42
70830;SHT30;58451;51.550;7.208;2023-03-01T06:38:14;-3.90;80.37
70830;SHT30;58451;51.550;7.208;2023-03-01T06:39:46;-3.87;80.43
70830;SHT30;58451;51.550;7.208;2023-03-01T06:41:18;-3.84;80.42
70830;SHT30;58451;51.550;7.208;2023-03-01T06:42:50;-3.82;80.42
70830;SHT30;58451;51.550;7.208;2023-03-01T06:44:24;-3.78;80.47
70830;SHT30;58451;51.550;7.208;2023-03-01T06:45:56;-3.76;80.42
70830;SHT30;58451;51.550;7.208;2023-03-01T06:47:28;-3.73;80.35
70830;SHT30;58451;51.550;7.208;2023-03-01T06:49:00;-3.69;80.35
70830;SHT30;58451;51.550;7.208;2023-03-01T06:50:32;-3.66;80.35
70830;SHT30;58451;51.550;7.208;2023-03-01T06:52:06;-3.62;80.33
70830;SHT30;58451;51.550;7.208;2023-03-01T06:53:37;-3.58;80.37
70830;SHT30;58451;51.550;7.208;2023-03-01T06:55:10;-3.53;80.33
70830;SHT30;58451;51.550;7.208;2023-03-01T06:56:48;-3.48;80.33
70830;SHT30;58451;51.550;7.208;2023-03-01T06:58:22;-3.42;80.40
70830;SHT30;58451;51.550;7.208;2023-03-01T06:59:55;-3.35;80.43
70830;SHT30;58451;51.550;7.208;2023-03-01T07:01:27;-3.28;80.43
70830;SHT30;58451;51.550;7.208;2023-03-01T07:02:59;-3.22;80.43
70830;SHT30;58451;51.550;7.208;2023-03-01T07:04:33;-3.14;80.55
70830;SHT30;58451;51.550;7.208;2023-03-01T07:06:06;-3.08;80.48
70830;SHT30;58451;51.550;7.208;2023-03-01T07:07:38;-3.01;80.42
70830;SHT30;58451;51.550;7.208;2023-03-01T07:09:10;-2.94;80.45
70830;SHT30;58451;51.550;7.208;2023-03-01T07:10:41;-2.87;80.33
70830;SHT30;58451;51.550;7.208;2023-03-01T07:12:13;-2.81;80.18
70830;SHT30;58451;51.550;7.208;2023-03-01T07:13:45;-2.72;80.20
70830;SHT30;58451;51.550;7.208;2023-03-01T07:15:17;-2.67;80.25
70830;SHT30;58451;51.550;7.208;2023-03-01T07:16:49;-2.60;80.25
70830;SHT30;58451;51.550;7.208;2023-03-01T07:18:21;-2.52;80.12
70830;SHT30;58451;51.550;7.208;2023-03-01T07:19:53;-2.43;80.13
70830;SHT30;58451;51.550;7.208;2023-03-01T07:21:26;-2.24;80.00
70830;SHT30;58451;51.550;7.208;2023-03-01T07:22:58;-0.97;79.55
70830;SHT30;58451;51.550;7.208;2023-03-01T07:24:30;0.05;78.15
70830;SHT30;58451;51.550;7.208;2023-03-01T07:26:02;0.19;78.28
70830;SHT30;58451;51.550;7.208;2023-03-01T07:27:34;0.41;78.63
70830;SHT30;58451;51.550;7.208;2023-03-01T07:29:06;0.44;78.50
70830;SHT30;58451;51.550;7.208;2023-03-01T07:30:41;0.44;78.48
70830;SHT30;58451;51.550;7.208;2023-03-01T07:32:12;0.35;78.27
70830;SHT30;58451;51.550;7.208;2023-03-01T07:33:44;0.24;78.27
70830;SHT30;58451;51.550;7.208;2023-03-01T07:35:16;0.16;78.25
70830;SHT30;58451;51.550;7.208;2023-03-01T07:36:48;0.11;78.17
70830;SHT30;58451;51.550;7.208;2023-03-01T07:38:20;0.01;77.73
70830;SHT30;58451;51.550;7.208;2023-03-01T07:39:51;-0.06;77.65
70830;SHT30;58451;51.550;7.208;2023-03-01T07:41:23;-0.10;77.65
70830;SHT30;58451;51.550;7.208;2023-03-01T07:42:56;-0.14;77.58
70830;SHT30;58451;51.550;7.208;2023-03-01T07:44:37;-0.17;77.43
70830;SHT30;58451;51.550;7.208;2023-03-01T07:46:09;-0.19;77.40
70830;SHT30;58451;51.550;7.208;2023-03-01T07:47:42;-0.22;77.35
70830;SHT30;58451;51.550;7.208;2023-03-01T07:49:14;-0.22;76.97
70830;SHT30;58451;51.550;7.208;2023-03-01T07:50:46;-0.24;76.97
70830;SHT30;58451;51.550;7.208;2023-03-01T07:52:20;-0.22;77.07
70830;SHT30;58451;51.550;7.208;2023-03-01T07:53:52;-0.22;77.12
70830;SHT30;58451;51.550;7.208;2023-03-01T07:55:24;-0.20;76.53
70830;SHT30;58451;51.550;7.208;2023-03-01T07:56:56;-0.19;76.62
70830;SHT30;58451;51.550;7.208;2023-03-01T07:58:29;-0.16;76.23
70830;SHT30;58451;51.550;7.208;2023-03-01T08:00:00;-0.13;76.10
70830;SHT30;58451;51.550;7.208;2023-03-01T08:01:42;-0.09;75.90
70830;SHT30;58451;51.550;7.208;2023-03-01T08:03:14;-0.07;75.95
70830;SHT30;58451;51.550;7.208;2023-03-01T08:04:45;-0.03;75.58
70830;SHT30;58451;51.550;7.208;2023-03-01T08:06:18;0.01;75.92
70830;SHT30;58451;51.550;7.208;2023-03-01T08:07:50;0.05;75.73
70830;SHT30;58451;51.550;7.208;2023-03-01T08:09:22;0.08;75.55
70830;SHT30;58451;51.550;7.208;2023-03-01T08:10:58;0.14;75.48
70830;SHT30;58451;51.550;7.208;2023-03-01T08:12:32;0.18;74.93
70830;SHT30;58451;51.550;7.208;2023-03-01T08:14:04;0.23;75.17
70830;SHT30;58451;51.550;7.208;2023-03-01T08:15:37;0.27;75.07
70830;SHT30;58451;51.550;7.208;2023-03-01T08:17:09;0.33;74.72
70830;SHT30;58451;51.550;7.208;2023-03-01T08:18:42;0.41;74.87
70830;SHT30;58451;51.550;7.208;2023-03-01T08:20:15;0.47;74.85
70830;SHT30;58451;51.550;7.208;2023-03-01T08:21:50;0.53;74.13
70830;SHT30;58451;51.550;7.208;2023-03-01T08:23:23;0.58;73.92
70830;SHT30;58451;51.550;7.208;2023-03-01T08:24:55;0.66;74.13
70830;SHT30;58451;51.550;7.208;2023-03-01T08:26:28;0.73;74.08
70830;SHT30;58451;51.550;7.208;2023-03-01T08:28:00;0.78;73.73
70830;SHT30;58451;51.550;7.208;2023-03-01T08:29:32;0.85;73.23
70830;SHT30;58451;51.550;7.208;2023-03-01T08:32:55;0.96;73.55
70830;SHT30;58451;51.550;7.208;2023-03-01T08:34:27;1.01;71.42
70830;SHT30;58451;51.550;7.208;2023-03-01T08:36:03;1.11;72.52
70830;SHT30;58451;51.550;7.208;2023-03-01T08:37:38;1.16;72.27
70830;SHT30;58451;51.550;7.208;2023-03-01T08:39:11;1.21;72.15
70830;SHT30;58451;51.550;7.208;2023-03-01T08:40:46;1.25;72.17
70830;SHT30;58451;51.550;7.208;2023-03-01T08:42:18;1.32;71.72
70830;SHT30;58451;51.550;7.208;2023-03-01T08:43:50;1.34;71.83
70830;SHT30;58451;51.550;7.208;2023-03-01T08:45:22;1.40;72.13
70830;SHT30;58451;51.550;7.208;2023-03-01T08:46:54;1.46;71.70
70830;SHT30;58451;51.550;7.208;2023-03-01T08:48:27;1.53;70.98
70830;SHT30;58451;51.550;7.208;2023-03-01T08:50:01;1.58;70.47
70830;SHT30;58451;51.550;7.208;2023-03-01T08:51:35;1.62;71.08
70830;SHT30;58451;51.550;7.208;2023-03-01T08:53:10;1.69;70.60
70830;SHT30;58451;51.550;7.208;2023-03-01T08:54:42;1.74;70.73
70830;SHT30;58451;51.550;7.208;2023-03-01T08:56:14;1.81;70.90
70830;SHT30;58451;51.550;7.208;2023-03-01T08:57:48;1.87;70.55
70830;SHT30;58451;51.550;7.208;2023-03-01T08:59:19;1.94;70.58
70830;SHT30;58451;51.550;7.208;2023-03-01T09:00:52;2.01;70.67
70830;SHT30;58451;51.550;7.208;2023-03-01T09:02:24;2.08;69.80
70830;SHT30;58451;51.550;7.208;2023-03-01T09:03:55;2.15;70.20
70830;SHT30;58451;51.550;7.208;2023-03-01T09:05:27;2.21;70.37
70830;SHT30;58451;51.550;7.208;2023-03-01T09:06:59;2.28;70.05
70830;SHT30;58451;51.550;7.208;2023-03-01T09:08:33;2.36;69.47
70830;SHT30;58451;51.550;7.208;2023-03-01T09:10:08;2.44;70.02
70830;SHT30;58451;51.550;7.208;2023-03-01T09:11:41;2.51;69.00
70830;SHT30;58451;51.550;7.208;2023-03-01T09:13:14;2.61;69.38
70830;SHT30;58451;51.550;7.208;2023-03-01T09:14:46;2.71;68.92
70830;SHT30;58451;51.550;7.208;2023-03-01T09:16:19;2.81;69.42
70830;SHT30;58451;51.550;7.208;2023-03-01T09:17:53;2.89;69.70
70830;SHT30;58451;51.550;7.208;2023-03-01T09:19:25;2.96;69.30
70830;SHT30;58451;51.550;7.208;2023-03-01T09:21:04;3.03;68.88
70830;SHT30;58451;51.550;7.208;2023-03-01T09:22:39;3.08;67.67
70830;SHT30;58451;51.550;7.208;2023-03-01T09:24:12;3.12;68.20
70830;SHT30;58451;51.550;7.208;2023-03-01T09:25:46;3.17;66.25
70830;SHT30;58451;51.550;7.208;2023-03-01T09:27:18;3.17;66.05
70830;SHT30;58451;51.550;7.208;2023-03-01T09:28:52;3.22;67.30
70830;SHT30;58451;51.550;7.208;2023-03-01T09:30:28;3.29;67.87
70830;SHT30;58451;51.550;7.208;2023-03-01T09:32:00;3.38;68.13
70830;SHT30;58451;51.550;7.208;2023-03-01T09:33:33;3.46;66.05
70830;SHT30;58451;51.550;7.208;2023-03-01T09:35:05;3.53;66.33
70830;SHT30;58451;51.550;7.208;2023-03-01T09:36:37;3.57;65.25
70830;SHT30;58451;51.550;7.208;2023-03-01T09:38:10;3.62;65.43
70830;SHT30;58451;51.550;7.208;2023-03-01T09:39:42;3.65;65.45
70830;SHT30;58451;51.550;7.208;2023-03-01T09:43:14;3.81;65.38
70830;SHT30;58451;51.550;7.208;2023-03-01T09:45:03;3.88;62.65
70830;SHT30;58451;51.550;7.208;2023-03-01T09:46:52;3.99;64.58
70830;SHT30;58451;51.550;7.208;2023-03-01T09:48:26;4.06;64.87
70830;SHT30;58451;51.550;7.208;2023-03-01T09:50:20;4.14;64.42
70830;SHT30;58451;51.550;7.208;2023-03-01T09:53:33;4.31;64.57
70830;SHT30;58451;51.550;7.208;2023-03-01T09:55:10;4.41;65.20
70830;SHT30;58451;51.550;7.208;2023-03-01T09:56:47;4.51;65.25
70830;SHT30;58451;51.550;7.208;2023-03-01T10:00:33;4.71;64.22
70830;SHT30;58451;51.550;7.208;2023-03-01T10:04:35;4.88;63.60
70830;SHT30;58451;51.550;7.208;2023-03-01T10:06:19;4.98;62.98
70830;SHT30;58451;51.550;7.208;2023-03-01T10:08:24;5.08;61.53
70830;SHT30;58451;51.550;7.208;2023-03-01T10:10:22;5.18;61.93
70830;SHT30;58451;51.550;7.208;2023-03-01T10:12:02;5.22;59.23
70830;SHT30;58451;51.550;7.208;2023-03-01T10:15:44;5.33;56.32
70830;SHT30;58451;51.550;7.208;2023-03-01T10:19:38;5.41;56.63